sensor_id;sensor_type;location;lat;lon;timestamp;temperature;humidity
64685;DHT22;51109;47.414;18.954;2022-08-01T00:01:43;17.20;99.90
64685;DHT22;51109;47.414;18.954;2022-08-01T00:04:09;17.10;99.90
64685;DHT22;51109;47.414;18.954;2022-08-01T00:06:35;17.20;99.90
64685;DHT22;51109;47.414;18.954;2022-08-01T00:09:01;17.10;99.90
64685;DHT22;51109;47.414;18.954;2022-08-01T00:11:27;17.20;99.90
64685;DHT22;51109;47.414;18.954;2022-08-01T00:13:53;17.20;99.90
64685;DHT22;51109;47.414;18.954;2022-08-01T00:16:19;17.20;99.90
64685;DHT22;51109;47.414;18.954;2022-08-01T00:18:45;17.30;99.90
64685;DHT22;51109;47.414;18.954;2022-08-01T00:21:11;17.30;99.90
64685;DHT22;51109;47.414;18.954;2022-08-01T00:23:36;17.40;99.90
64685;DHT22;51109;47.414;18.954;2022-08-01T00:26:02;17.40;99.90
64685;DHT22;51109;47.414;18.954;2022-08-01T00:28:28;17.50;99.90
64685;DHT22;51109;47.414;18.954;2022-08-01T00:30:54;17.50;99.90
64685;DHT22;51109;47.414;18.954;2022-08-01T00:33:20;17.40;99.90
64685;DHT22;51109;47.414;18.954;2022-08-01T00:35:46;17.30;99.90
64685;DHT22;51109;47.414;18.954;2022-08-01T00:38:11;17.40;99.90
64685;DHT22;51109;47.414;18.954;2022-08-01T00:40:37;17.50;99.90
64685;DHT22;51109;47.414;18.954;2022-08-01T00:43:03;17.50;99.90
64685;DHT22;51109;47.414;18.954;2022-08-01T00:45:29;17.40;99.90
64685;DHT22;51109;47.414;18.954;2022-08-01T00:47:55;17.50;99.90
64685;DHT22;51109;47.414;18.954;2022-08-01T00:50:21;17.50;99.90
64685;DHT22;51109;47.414;18.954;2022-08-01T00:52:47;17.50;99.90
64685;DHT22;51109;47.414;18.954;2022-08-01T00:55:15;17.50;99.90
64685;DHT22;51109;47.414;18.954;2022-08-01T00:57:43;17.40;99.90
64685;DHT22;51109;47.414;18.954;2022-08-01T01:00:10;17.30;99.90
64685;DHT22;51109;47.414;18.954;2022-08-01T01:02:36;17.20;99.90
64685;DHT22;51109;47.414;18.954;2022-08-01T01:05:02;17.10;99.90
64685;DHT22;51109;47.414;18.954;2022-08-01T01:08:17;17.00;99.90
64685;DHT22;51109;47.414;18.954;2022-08-01T01:11:02;17.00;99.90
64685;DHT22;51109;47.414;18.954;2022-08-01T01:13:38;16.90;99.90
64685;DHT22;51109;47.414;18.954;2022-08-01T01:16:11;16.90;99.90
64685;DHT22;51109;47.414;18.954;2022-08-01T01:18:55;16.80;99.90
64685;DHT22;51109;47.414;18.954;2022-08-01T01:29:00;17.10;99.90
64685;DHT22;51109;47.414;18.954;2022-08-01T01:31:27;17.10;99.90
64685;DHT22;51109;47.414;18.954;2022-08-01T01:33:55;17.10;99.90
64685;DHT22;51109;47.414;18.954;2022-08-01T01:36:24;17.10;99.90
64685;DHT22;51109;47.414;18.954;2022-08-01T01:38:52;17.00;99.90
64685;DHT22;51109;47.414;18.954;2022-08-01T01:41:20;17.00;99.90
64685;DHT22;51109;47.414;18.954;2022-08-01T01:43:47;17.10;99.90
64685;DHT22;51109;47.414;18.954;2022-08-01T01:46:17;17.30;99.90
64685;DHT22;51109;47.414;18.954;2022-08-01T01:48:46;17.40;99.90
64685;DHT22;51109;47.414;18.954;2022-08-01T01:51:13;17.50;99.90
64685;DHT22;51109;47.414;18.954;2022-08-01T01:53:40;17.50;99.90
64685;DHT22;51109;47.414;18.954;2022-08-01T01:56:09;17.50;99.90
64685;DHT22;51109;47.414;18.954;2022-08-01T01:58:36;17.60;99.90
64685;DHT22;51109;47.414;18.954;2022-08-01T02:01:04;17.60;99.90
64685;DHT22;51109;47.414;18.954;2022-08-01T02:03:33;17.70;99.90
64685;DHT22;51109;47.414;18.954;2022-08-01T02:06:02;17.70;99.90
64685;DHT22;51109;47.414;18.954;2022-08-01T02:08:29;17.80;99.90
64685;DHT22;51109;47.414;18.954;2022-08-01T02:10:57;17.80;99.90
64685;DHT22;51109;47.414;18.954;2022-08-01T02:13:43;17.70;99.90
64685;DHT22;51109;47.414;18.954;2022-08-01T02:16:10;17.70;99.90
64685;DHT22;51109;47.414;18.954;2022-08-01T02:18:37;17.70;99.90
64685;DHT22;51109;47.414;18.954;2022-08-01T02:21:05;17.60;99.90
64685;DHT22;51109;47.414;18.954;2022-08-01T02:23:34;17.60;99.90
64685;DHT22;51109;47.414;18.954;2022-08-01T02:26:03;17.60;99.90
64685;DHT22;51109;47.414;18.954;2022-08-01T02:28:36;17.60;99.90
64685;DHT22;51109;47.414;18.954;2022-08-01T02:31:07;17.50;99.90
64685;DHT22;51109;47.414;18.954;2022-08-01T02:33:59;17.50;99.90
64685;DHT22;51109;47.414;18.954;2022-08-01T02:36:28;17.60;99.90
64685;DHT22;51109;47.414;18.954;2022-08-01T02:38:56;17.60;99.90
64685;DHT22;51109;47.414;18.954;2022-08-01T02:41:25;17.50;99.90
64685;DHT22;51109;47.414;18.954;2022-08-01T02:43:53;17.50;99.90
64685;DHT22;51109;47.414;18.954;2022-08-01T02:46:47;17.40;99.90
64685;DHT22;51109;47.414;18.954;2022-08-01T02:49:11;17.50;99.90
64685;DHT22;51109;47.414;18.954;2022-08-01T02:51:39;17.30;99.90
64685;DHT22;51109;47.414;18.954;2022-08-01T02:54:08;17.30;99.90
64685;DHT22;51109;47.414;18.954;2022-08-01T02:56:36;17.30;99.90
64685;DHT22;51109;47.414;18.954;2022-08-01T02:59:07;17.30;99.90
64685;DHT22;51109;47.414;18.954;2022-08-01T03:01:34;17.30;99.90
64685;DHT22;51109;47.414;18.954;2022-08-01T03:04:03;17.30;99.90
64685;DHT22;51109;47.414;18.954;2022-08-01T03:06:31;17.40;99.90
64685;DHT22;51109;47.414;18.954;2022-08-01T03:09:00;17.40;99.90
64685;DHT22;51109;47.414;18.954;2022-08-01T03:11:27;17.50;99.90
64685;DHT22;51109;47.414;18.954;2022-08-01T03:13:56;17.50;99.90
64685;DHT22;51109;47.414;18.954;2022-08-01T03:16:25;17.40;99.90
64685;DHT22;51109;47.414;18.954;2022-08-01T03:18:53;17.40;99.90
64685;DHT22;51109;47.414;18.954;2022-08-01T03:21:23;17.50;99.90
64685;DHT22;51109;47.414;18.954;2022-08-01T03:23:50;17.50;99.90
64685;DHT22;51109;47.414;18.954;2022-08-01T03:26:26;17.50;99.90
64685;DHT22;51109;47.414;18.954;2022-08-01T03:28:57;17.40;99.90
64685;DHT22;51109;47.414;18.954;2022-08-01T03:31:25;17.50;99.90
64685;DHT22;51109;47.414;18.954;2022-08-01T03:33:52;17.50;99.90
64685;DHT22;51109;47.414;18.954;2022-08-01T03:36:22;17.50;99.90
64685;DHT22;51109;47.414;18.954;2022-08-01T03:38:51;17.60;99.90
64685;DHT22;51109;47.414;18.954;2022-08-01T03:41:21;17.60;99.90
64685;DHT22;51109;47.414;18.954;2022-08-01T03:43:56;17.60;99.90
64685;DHT22;51109;47.414;18.954;2022-08-01T03:46:42;17.50;99.90
64685;DHT22;51109;47.414;18.954;2022-08-01T03:49:14;17.50;99.90
64685;DHT22;51109;47.414;18.954;2022-08-01T03:51:41;17.60;99.90
64685;DHT22;51109;47.414;18.954;2022-08-01T03:54:08;17.60;99.90
64685;DHT22;51109;47.414;18.954;2022-08-01T03:56:36;17.50;99.90
64685;DHT22;51109;47.414;18.954;2022-08-01T03:59:04;17.50;99.90
64685;DHT22;51109;47.414;18.954;2022-08-01T04:01:31;17.40;99.90
64685;DHT22;51109;47.414;18.954;2022-08-01T04:03:59;17.50;99.90
64685;DHT22;51109;47.414;18.954;2022-08-01T04:06:25;17.50;99.90
64685;DHT22;51109;47.414;18.954;2022-08-01T04:08:52;17.60;99.90
64685;DHT22;51109;47.414;18.954;2022-08-01T04:11:25;17.70;99.90
64685;DHT22;51109;47.414;18.954;2022-08-01T04:13:52;17.80;99.90
64685;DHT22;51109;47.414;18.954;2022-08-01T04:16:22;17.90;99.90
64685;DHT22;51109;47.414;18.954;2022-08-01T04:18:48;17.90;99.90
64685;DHT22;51109;47.414;18.954;2022-08-01T04:21:23;18.10;99.90
64685;DHT22;51109;47.414;18.954;2022-08-01T04:23:53;18.10;99.90
64685;DHT22;51109;47.414;18.954;2022-08-01T04:26:20;18.10;99.90
64685;DHT22;51109;47.414;18.954;2022-08-01T04:28:48;18.20;99.90
64685;DHT22;51109;47.414;18.954;2022-08-01T04:31:16;18.20;99.90
64685;DHT22;51109;47.414;18.954;2022-08-01T04:33:47;18.30;99.90
64685;DHT22;51109;47.414;18.954;2022-08-01T04:36:18;18.40;99.90
64685;DHT22;51109;47.414;18.954;2022-08-01T04:38:46;18.40;99.90
64685;DHT22;51109;47.414;18.954;2022-08-01T04:41:14;18.60;99.90
64685;DHT22;51109;47.414;18.954;2022-08-01T04:43:41;18.60;99.90
64685;DHT22;51109;47.414;18.954;2022-08-01T04:46:08;18.60;99.90
64685;DHT22;51109;47.414;18.954;2022-08-01T04:48:38;18.80;99.90
64685;DHT22;51109;47.414;18.954;2022-08-01T04:51:09;18.90;99.90
64685;DHT22;51109;47.414;18.954;2022-08-01T04:53:36;19.00;99.90
64685;DHT22;51109;47.414;18.954;2022-08-01T04:56:02;19.20;99.90
64685;DHT22;51109;47.414;18.954;2022-08-01T04:58:28;19.30;99.90
64685;DHT22;51109;47.414;18.954;2022-08-01T05:00:54;19.40;99.90
64685;DHT22;51109;47.414;18.954;2022-08-01T05:03:20;19.50;99.90
64685;DHT22;51109;47.414;18.954;2022-08-01T05:05:46;19.60;99.90
64685;DHT22;51109;47.414;18.954;2022-08-01T05:08:11;19.60;99.90
64685;DHT22;51109;47.414;18.954;2022-08-01T05:10:37;19.70;99.90
64685;DHT22;51109;47.414;18.954;2022-08-01T05:13:03;19.80;99.90
64685;DHT22;51109;47.414;18.954;2022-08-01T05:15:29;19.90;99.90
64685;DHT22;51109;47.414;18.954;2022-08-01T05:17:55;20.00;99.90
64685;DHT22;51109;47.414;18.954;2022-08-01T05:20:22;20.10;99.90
64685;DHT22;51109;47.414;18.954;2022-08-01T05:22:48;20.20;99.90
64685;DHT22;51109;47.414;18.954;2022-08-01T05:25:14;20.30;99.90
64685;DHT22;51109;47.414;18.954;2022-08-01T05:27:40;20.40;99.90
64685;DHT22;51109;47.414;18.954;2022-08-01T05:30:09;20.50;99.90
64685;DHT22;51109;47.414;18.954;2022-08-01T05:32:36;20.60;99.90
64685;DHT22;51109;47.414;18.954;2022-08-01T05:35:02;20.70;99.90
64685;DHT22;51109;47.414;18.954;2022-08-01T05:37:29;20.90;99.90
64685;DHT22;51109;47.414;18.954;2022-08-01T05:39:56;20.90;99.90
64685;DHT22;51109;47.414;18.954;2022-08-01T05:42:22;21.00;99.90
64685;DHT22;51109;47.414;18.954;2022-08-01T05:44:48;21.20;99.90
64685;DHT22;51109;47.414;18.954;2022-08-01T05:47:14;21.30;99.90
64685;DHT22;51109;47.414;18.954;2022-08-01T05:49:40;21.40;99.90
64685;DHT22;51109;47.414;18.954;2022-08-01T05:52:05;21.60;99.90
64685;DHT22;51109;47.414;18.954;2022-08-01T05:54:31;21.60;99.90
64685;DHT22;51109;47.414;18.954;2022-08-01T05:56:57;21.70;99.90
64685;DHT22;51109;47.414;18.954;2022-08-01T05:59:30;21.80;99.90
64685;DHT22;51109;47.414;18.954;2022-08-01T06:01:56;21.90;99.90
64685;DHT22;51109;47.414;18.954;2022-08-01T06:04:23;22.00;99.90
64685;DHT22;51109;47.414;18.954;2022-08-01T06:06:49;22.10;99.90
64685;DHT22;51109;47.414;18.954;2022-08-01T06:09:15;22.20;99.90
64685;DHT22;51109;47.414;18.954;2022-08-01T06:11:41;22.30;99.90
64685;DHT22;51109;47.414;18.954;2022-08-01T06:14:07;22.40;99.90
64685;DHT22;51109;47.414;18.954;2022-08-01T06:16:33;22.60;99.90
64685;DHT22;51109;47.414;18.954;2022-08-01T06:18:59;22.60;99.90
64685;DHT22;51109;47.414;18.954;2022-08-01T06:21:25;22.80;99.90
64685;DHT22;51109;47.414;18.954;2022-08-01T06:23:50;22.90;99.90
64685;DHT22;51109;47.414;18.954;2022-08-01T06:26:20;22.90;99.90
64685;DHT22;51109;47.414;18.954;2022-08-01T06:28:46;23.00;99.90
64685;DHT22;51109;47.414;18.954;2022-08-01T06:31:12;22.90;99.90
64685;DHT22;51109;47.414;18.954;2022-08-01T06:33:39;22.80;99.90
64685;DHT22;51109;47.414;18.954;2022-08-01T06:36:05;23.00;99.90
64685;DHT22;51109;47.414;18.954;2022-08-01T06:38:31;23.30;99.90
64685;DHT22;51109;47.414;18.954;2022-08-01T06:40:57;23.50;99.90
64685;DHT22;51109;47.414;18.954;2022-08-01T06:43:23;23.60;99.90
64685;DHT22;51109;47.414;18.954;2022-08-01T06:45:49;23.70;99.90
64685;DHT22;51109;47.414;18.954;2022-08-01T06:48:15;23.90;99.90
64685;DHT22;51109;47.414;18.954;2022-08-01T06:50:41;24.00;99.90
64685;DHT22;51109;47.414;18.954;2022-08-01T06:53:07;23.90;99.90
64685;DHT22;51109;47.414;18.954;2022-08-01T06:55:33;24.10;99.90
64685;DHT22;51109;47.414;18.954;2022-08-01T06:57:59;24.20;99.90
64685;DHT22;51109;47.414;18.954;2022-08-01T07:00:25;24.30;99.90
64685;DHT22;51109;47.414;18.954;2022-08-01T07:02:53;24.30;99.90
64685;DHT22;51109;47.414;18.954;2022-08-01T07:05:19;24.40;99.90
64685;DHT22;51109;47.414;18.954;2022-08-01T07:07:45;24.40;99.90
64685;DHT22;51109;47.414;18.954;2022-08-01T07:10:12;24.60;99.90
64685;DHT22;51109;47.414;18.954;2022-08-01T07:12:38;24.90;99.90
64685;DHT22;51109;47.414;18.954;2022-08-01T07:15:06;25.10;99.90
64685;DHT22;51109;47.414;18.954;2022-08-01T07:17:35;25.10;99.90
64685;DHT22;51109;47.414;18.954;2022-08-01T07:20:02;25.30;99.90
64685;DHT22;51109;47.414;18.954;2022-08-01T07:22:28;25.50;99.90
64685;DHT22;51109;47.414;18.954;2022-08-01T07:24:54;25.60;99.90
64685;DHT22;51109;47.414;18.954;2022-08-01T07:27:20;25.70;99.90
64685;DHT22;51109;47.414;18.954;2022-08-01T07:29:47;25.80;99.90
64685;DHT22;51109;47.414;18.954;2022-08-01T07:32:13;25.80;99.90
64685;DHT22;51109;47.414;18.954;2022-08-01T07:34:39;25.80;99.90
64685;DHT22;51109;47.414;18.954;2022-08-01T07:37:05;25.90;99.90
64685;DHT22;51109;47.414;18.954;2022-08-01T07:39:30;26.10;99.90
64685;DHT22;51109;47.414;18.954;2022-08-01T07:41:56;26.20;99.90
64685;DHT22;51109;47.414;18.954;2022-08-01T07:44:23;26.30;99.90
64685;DHT22;51109;47.414;18.954;2022-08-01T07:46:49;26.20;99.90
64685;DHT22;51109;47.414;18.954;2022-08-01T07:49:15;26.10;99.90
64685;DHT22;51109;47.414;18.954;2022-08-01T07:51:41;26.00;99.90
64685;DHT22;51109;47.414;18.954;2022-08-01T07:54:06;26.00;99.90
64685;DHT22;51109;47.414;18.954;2022-08-01T07:56:33;25.90;99.90
64685;DHT22;51109;47.414;18.954;2022-08-01T07:58:59;25.80;99.90
64685;DHT22;51109;47.414;18.954;2022-08-01T08:01:25;26.00;99.90
64685;DHT22;51109;47.414;18.954;2022-08-01T08:03:51;26.10;99.90
64685;DHT22;51109;47.414;18.954;2022-08-01T08:06:17;26.10;99.90
64685;DHT22;51109;47.414;18.954;2022-08-01T08:08:42;25.90;99.90
64685;DHT22;51109;47.414;18.954;2022-08-01T08:11:08;25.80;99.90
64685;DHT22;51109;47.414;18.954;2022-08-01T08:13:34;25.80;99.90
64685;DHT22;51109;47.414;18.954;2022-08-01T08:16:00;25.80;99.90
64685;DHT22;51109;47.414;18.954;2022-08-01T08:18:26;25.80;99.90
64685;DHT22;51109;47.414;18.954;2022-08-01T08:20:52;25.60;99.90
64685;DHT22;51109;47.414;18.954;2022-08-01T08:23:17;25.60;99.90
64685;DHT22;51109;47.414;18.954;2022-08-01T08:26:02;25.40;99.90
64685;DHT22;51109;47.414;18.954;2022-08-01T08:28:28;25.40;99.90
64685;DHT22;51109;47.414;18.954;2022-08-01T08:30:54;25.30;99.90
64685;DHT22;51109;47.414;18.954;2022-08-01T08:33:20;25.30;99.90
64685;DHT22;51109;47.414;18.954;2022-08-01T08:35:46;25.00;99.90
64685;DHT22;51109;47.414;18.954;2022-08-01T08:38:12;24.90;99.90
64685;DHT22;51109;47.414;18.954;2022-08-01T08:40:38;24.80;99.90
64685;DHT22;51109;47.414;18.954;2022-08-01T08:43:05;24.90;99.90
64685;DHT22;51109;47.414;18.954;2022-08-01T08:45:32;24.90;99.90
64685;DHT22;51109;47.414;18.954;2022-08-01T08:47:58;25.00;99.90
64685;DHT22;51109;47.414;18.954;2022-08-01T08:50:25;24.70;99.90
64685;DHT22;51109;47.414;18.954;2022-08-01T08:52:54;24.60;99.90
64685;DHT22;51109;47.414;18.954;2022-08-01T08:55:21;24.60;99.90
64685;DHT22;51109;47.414;18.954;2022-08-01T08:57:47;24.60;99.90
64685;DHT22;51109;47.414;18.954;2022-08-01T09:00:14;24.60;99.90
64685;DHT22;51109;47.414;18.954;2022-08-01T09:02:45;24.60;99.90
64685;DHT22;51109;47.414;18.954;2022-08-01T09:05:13;24.70;99.90
64685;DHT22;51109;47.414;18.954;2022-08-01T09:07:39;24.80;99.90
64685;DHT22;51109;47.414;18.954;2022-08-01T09:10:05;24.80;99.90
64685;DHT22;51109;47.414;18.954;2022-08-01T09:12:33;24.80;99.90
64685;DHT22;51109;47.414;18.954;2022-08-01T09:14:59;24.90;99.90
64685;DHT22;51109;47.414;18.954;2022-08-01T09:17:25;24.90;99.90
64685;DHT22;51109;47.414;18.954;2022-08-01T09:19:55;25.10;99.90
64685;DHT22;51109;47.414;18.954;2022-08-01T09:22:24;25.20;99.90
64685;DHT22;51109;47.414;18.954;2022-08-01T09:24:58;25.30;99.90
64685;DHT22;51109;47.414;18.954;2022-08-01T09:27:24;25.30;99.90
64685;DHT22;51109;47.414;18.954;2022-08-01T09:29:52;25.40;99.90
64685;DHT22;51109;47.414;18.954;2022-08-01T09:32:19;25.50;99.90
64685;DHT22;51109;47.414;18.954;2022-08-01T09:34:45;25.50;99.90
64685;DHT22;51109;47.414;18.954;2022-08-01T09:37:14;25.70;99.90
64685;DHT22;51109;47.414;18.954;2022-08-01T09:39:43;25.60;99.90
64685;DHT22;51109;47.414;18.954;2022-08-01T09:42:25;25.70;99.90
64685;DHT22;51109;47.414;18.954;2022-08-01T09:44:52;25.70;99.90
64685;DHT22;51109;47.414;18.954;2022-08-01T09:47:19;25.80;99.90
64685;DHT22;51109;47.414;18.954;2022-08-01T09:49:57;25.80;99.90
64685;DHT22;51109;47.414;18.954;2022-08-01T09:52:24;25.80;99.90
64685;DHT22;51109;47.414;18.954;2022-08-01T09:55:02;25.70;99.90
64685;DHT22;51109;47.414;18.954;2022-08-01T09:57:29;25.80;99.90
64685;DHT22;51109;47.414;18.954;2022-08-01T09:59:57;25.80;99.90
64685;DHT22;51109;47.414;18.954;2022-08-01T10:04:57;25.90;99.90
64685;DHT22;51109;47.414;18.954;2022-08-01T10:07:22;25.90;99.90
64685;DHT22;51109;47.414;18.954;2022-08-01T10:09:48;26.00;99.90
64685;DHT22;51109;47.414;18.954;2022-08-01T10:12:18;26.20;99.90
64685;DHT22;51109;47.414;18.954;2022-08-01T10:14:45;26.40;99.90
64685;DHT22;51109;47.414;18.954;2022-08-01T10:17:13;26.30;99.90
64685;DHT22;51109;47.414;18.954;2022-08-01T10:19:44;26.50;99.90
64685;DHT22;51109;47.414;18.954;2022-08-01T10:22:14;26.60;99.90
64685;DHT22;51109;47.414;18.954;2022-08-01T10:24:44;26.70;99.90
64685;DHT22;51109;47.414;18.954;2022-08-01T10:27:10;26.80;99.90
64685;DHT22;51109;47.414;18.954;2022-08-01T10:29:47;26.90;99.90
64685;DHT22;51109;47.414;18.954;2022-08-01T10:32:13;27.00;99.90
64685;DHT22;51109;47.414;18.954;2022-08-01T10:34:39;27.10;99.90
64685;DHT22;51109;47.414;18.954;2022-08-01T10:37:05;27.10;99.90
64685;DHT22;51109;47.414;18.954;2022-08-01T10:39:33;27.20;99.90
64685;DHT22;51109;47.414;18.954;2022-08-01T10:42:01;27.20;99.90
64685;DHT22;51109;47.414;18.954;2022-08-01T10:44:28;27.30;99.90
64685;DHT22;51109;47.414;18.954;2022-08-01T10:49:39;27.40;99.90
64685;DHT22;51109;47.414;18.954;2022-08-01T10:52:06;27.50;99.90
64685;DHT22;51109;47.414;18.954;2022-08-01T10:54:38;27.60;99.90
64685;DHT22;51109;47.414;18.954;2022-08-01T10:57:05;27.70;99.90
64685;DHT22;51109;47.414;18.954;2022-08-01T10:59:32;27.80;99.90
64685;DHT22;51109;47.414;18.954;2022-08-01T11:02:04;27.80;99.90
64685;DHT22;51109;47.414;18.954;2022-08-01T11:04:58;27.80;99.90
64685;DHT22;51109;47.414;18.954;2022-08-01T11:07:55;28.00;99.90
64685;DHT22;51109;47.414;18.954;2022-08-01T11:10:39;28.10;99.90
64685;DHT22;51109;47.414;18.954;2022-08-01T11:13:06;28.20;99.90
64685;DHT22;51109;47.414;18.954;2022-08-01T11:15:41;28.30;99.90
64685;DHT22;51109;47.414;18.954;2022-08-01T11:20:59;28.50;99.90
64685;DHT22;51109;47.414;18.954;2022-08-01T11:23:27;28.50;99.90
64685;DHT22;51109;47.414;18.954;2022-08-01T11:28:21;28.60;99.90
64685;DHT22;51109;47.414;18.954;2022-08-01T11:38:38;28.80;99.90
64685;DHT22;51109;47.414;18.954;2022-08-01T11:41:17;28.60;99.90
64685;DHT22;51109;47.414;18.954;2022-08-01T11:43:55;28.60;99.90
64685;DHT22;51109;47.414;18.954;2022-08-01T11:52:05;28.20;99.90
64685;DHT22;51109;47.414;18.954;2022-08-01T11:54:34;28.20;99.90
64685;DHT22;51109;47.414;18.954;2022-08-01T11:57:06;28.20;99.90
64685;DHT22;51109;47.414;18.954;2022-08-01T12:02:03;28.10;99.90
64685;DHT22;51109;47.414;18.954;2022-08-01T12:07:14;27.80;99.90
64685;DHT22;51109;47.414;18.954;2022-08-01T12:09:55;27.80;99.90
64685;DHT22;51109;47.414;18.954;2022-08-01T12:12:21;27.80;99.90
64685;DHT22;51109;47.414;18.954;2022-08-01T12:14:53;28.00;99.90
64685;DHT22;51109;47.414;18.954;2022-08-01T12:17:31;28.10;99.90
64685;DHT22;51109;47.414;18.954;2022-08-01T12:20:04;28.20;99.90
64685;DHT22;51109;47.414;18.954;2022-08-01T12:22:32;28.30;99.10
64685;DHT22;51109;47.414;18.954;2022-08-01T12:25:06;28.20;99.90
64685;DHT22;51109;47.414;18.954;2022-08-01T12:27:33;28.20;99.90
64685;DHT22;51109;47.414;18.954;2022-08-01T12:29:59;28.10;99.90
64685;DHT22;51109;47.414;18.954;2022-08-01T12:32:27;28.10;99.90
64685;DHT22;51109;47.414;18.954;2022-08-01T12:34:54;28.10;99.90
64685;DHT22;51109;47.414;18.954;2022-08-01T12:37:21;28.10;99.90
64685;DHT22;51109;47.414;18.954;2022-08-01T12:39:48;28.10;99.90
64685;DHT22;51109;47.414;18.954;2022-08-01T12:42:14;28.10;99.90
64685;DHT22;51109;47.414;18.954;2022-08-01T12:44:42;28.30;99.90
64685;DHT22;51109;47.414;18.954;2022-08-01T12:47:10;28.30;99.90
64685;DHT22;51109;47.414;18.954;2022-08-01T12:49:41;28.40;99.90
64685;DHT22;51109;47.414;18.954;2022-08-01T12:52:08;28.70;99.90
64685;DHT22;51109;47.414;18.954;2022-08-01T12:55:19;29.00;99.90
64685;DHT22;51109;47.414;18.954;2022-08-01T12:58:02;29.10;99.60
64685;DHT22;51109;47.414;18.954;2022-08-01T13:00:29;29.30;99.90
64685;DHT22;51109;47.414;18.954;2022-08-01T13:03:07;29.60;99.40
64685;DHT22;51109;47.414;18.954;2022-08-01T13:08:20;29.00;99.80
64685;DHT22;51109;47.414;18.954;2022-08-01T13:10:47;28.90;99.60
64685;DHT22;51109;47.414;18.954;2022-08-01T13:13:14;28.90;99.90
64685;DHT22;51109;47.414;18.954;2022-08-01T13:15:42;28.90;99.90
64685;DHT22;51109;47.414;18.954;2022-08-01T13:18:25;29.10;99.90
64685;DHT22;51109;47.414;18.954;2022-08-01T13:21:11;28.80;99.90
64685;DHT22;51109;47.414;18.954;2022-08-01T13:23:39;28.80;99.10
64685;DHT22;51109;47.414;18.954;2022-08-01T13:26:05;28.90;99.50
64685;DHT22;51109;47.414;18.954;2022-08-01T13:28:32;29.10;99.20
64685;DHT22;51109;47.414;18.954;2022-08-01T13:31:08;29.20;99.90
64685;DHT22;51109;47.414;18.954;2022-08-01T13:33:45;29.60;98.40
64685;DHT22;51109;47.414;18.954;2022-08-01T13:36:11;29.70;98.30
64685;DHT22;51109;47.414;18.954;2022-08-01T13:38:39;29.80;98.70
64685;DHT22;51109;47.414;18.954;2022-08-01T13:41:24;29.80;98.30
64685;DHT22;51109;47.414;18.954;2022-08-01T13:43:50;30.00;98.00
64685;DHT22;51109;47.414;18.954;2022-08-01T13:46:16;30.10;97.70
64685;DHT22;51109;47.414;18.954;2022-08-01T13:48:42;30.00;97.10
64685;DHT22;51109;47.414;18.954;2022-08-01T13:51:08;30.10;98.80
64685;DHT22;51109;47.414;18.954;2022-08-01T13:53:34;30.30;96.90
64685;DHT22;51109;47.414;18.954;2022-08-01T13:56:01;30.50;96.00
64685;DHT22;51109;47.414;18.954;2022-08-01T13:58:27;30.10;97.30
64685;DHT22;51109;47.414;18.954;2022-08-01T14:00:54;30.10;96.80
64685;DHT22;51109;47.414;18.954;2022-08-01T14:03:21;29.90;96.50
64685;DHT22;51109;47.414;18.954;2022-08-01T14:05:47;30.10;95.90
64685;DHT22;51109;47.414;18.954;2022-08-01T14:08:14;30.40;96.30
64685;DHT22;51109;47.414;18.954;2022-08-01T14:10:41;30.30;96.60
64685;DHT22;51109;47.414;18.954;2022-08-01T14:13:07;30.40;97.10
64685;DHT22;51109;47.414;18.954;2022-08-01T14:15:32;30.50;96.70
64685;DHT22;51109;47.414;18.954;2022-08-01T14:17:59;30.50;98.10
64685;DHT22;51109;47.414;18.954;2022-08-01T14:20:26;30.60;97.70
64685;DHT22;51109;47.414;18.954;2022-08-01T14:22:51;30.80;96.10
64685;DHT22;51109;47.414;18.954;2022-08-01T14:25:17;30.70;96.60
64685;DHT22;51109;47.414;18.954;2022-08-01T14:27:45;30.70;96.20
64685;DHT22;51109;47.414;18.954;2022-08-01T14:30:12;30.80;96.40
64685;DHT22;51109;47.414;18.954;2022-08-01T14:32:38;30.70;96.20
64685;DHT22;51109;47.414;18.954;2022-08-01T14:35:05;30.60;96.40
64685;DHT22;51109;47.414;18.954;2022-08-01T14:37:32;30.50;96.40
64685;DHT22;51109;47.414;18.954;2022-08-01T14:40:00;30.50;96.60
64685;DHT22;51109;47.414;18.954;2022-08-01T14:42:30;30.50;96.80
64685;DHT22;51109;47.414;18.954;2022-08-01T14:44:56;30.30;96.40
64685;DHT22;51109;47.414;18.954;2022-08-01T14:47:22;30.30;97.50
64685;DHT22;51109;47.414;18.954;2022-08-01T14:49:50;30.20;97.30
64685;DHT22;51109;47.414;18.954;2022-08-01T14:52:17;30.30;97.70
64685;DHT22;51109;47.414;18.954;2022-08-01T14:54:43;30.20;96.90
64685;DHT22;51109;47.414;18.954;2022-08-01T14:57:09;30.20;98.40
64685;DHT22;51109;47.414;18.954;2022-08-01T14:59:44;30.40;97.30
64685;DHT22;51109;47.414;18.954;2022-08-01T15:02:10;30.30;97.60
64685;DHT22;51109;47.414;18.954;2022-08-01T15:04:36;30.40;97.30
64685;DHT22;51109;47.414;18.954;2022-08-01T15:07:02;30.60;98.50
64685;DHT22;51109;47.414;18.954;2022-08-01T15:09:30;30.60;96.90
64685;DHT22;51109;47.414;18.954;2022-08-01T15:11:55;30.60;96.50
64685;DHT22;51109;47.414;18.954;2022-08-01T15:14:21;30.60;97.70
64685;DHT22;51109;47.414;18.954;2022-08-01T15:17:06;30.60;97.00
64685;DHT22;51109;47.414;18.954;2022-08-01T15:19:36;30.50;97.30
64685;DHT22;51109;47.414;18.954;2022-08-01T15:22:02;30.50;96.60
64685;DHT22;51109;47.414;18.954;2022-08-01T15:24:28;30.40;95.90
64685;DHT22;51109;47.414;18.954;2022-08-01T15:26:54;30.40;96.00
64685;DHT22;51109;47.414;18.954;2022-08-01T15:29:19;30.40;96.10
64685;DHT22;51109;47.414;18.954;2022-08-01T15:31:45;30.60;94.80
64685;DHT22;51109;47.414;18.954;2022-08-01T15:34:11;30.60;94.30
64685;DHT22;51109;47.414;18.954;2022-08-01T15:36:37;30.80;94.30
64685;DHT22;51109;47.414;18.954;2022-08-01T15:39:03;31.00;94.50
64685;DHT22;51109;47.414;18.954;2022-08-01T15:41:29;31.10;94.20
64685;DHT22;51109;47.414;18.954;2022-08-01T15:43:55;31.40;94.40
64685;DHT22;51109;47.414;18.954;2022-08-01T15:46:21;31.50;93.50
64685;DHT22;51109;47.414;18.954;2022-08-01T15:48:47;31.70;93.40
64685;DHT22;51109;47.414;18.954;2022-08-01T15:51:13;31.70;93.10
64685;DHT22;51109;47.414;18.954;2022-08-01T15:53:38;31.80;93.50
64685;DHT22;51109;47.414;18.954;2022-08-01T15:56:04;31.70;92.30
64685;DHT22;51109;47.414;18.954;2022-08-01T15:58:30;31.60;93.00
64685;DHT22;51109;47.414;18.954;2022-08-01T16:00:56;31.90;92.60
64685;DHT22;51109;47.414;18.954;2022-08-01T16:03:22;31.80;92.80